sensor_id;sensor_type;location;lat;lon;timestamp;pressure;altitude;pressure_sealevel;temperature
67515;BMP280;60646;55.802;37.032;2022-08-25T00:01:59;100849.03;;;22.69
67515;BMP280;60646;55.802;37.032;2022-08-25T00:04:44;100852.66;;;22.64
67515;BMP280;60646;55.802;37.032;2022-08-25T00:07:09;100852.66;;;22.64
67515;BMP280;60646;55.802;37.032;2022-08-25T00:09:36;100855.56;;;22.66
67515;BMP280;60646;55.802;37.032;2022-08-25T00:12:03;100852.66;;;22.64
67515;BMP280;60646;55.802;37.032;2022-08-25T00:14:33;100863.94;;;22.68
67515;BMP280;60646;55.802;37.032;2022-08-25T00:17:00;100846.44;;;22.56
67515;BMP280;60646;55.802;37.032;2022-08-25T00:19:30;100859.16;;;22.61
67515;BMP280;60646;55.802;37.032;2022-08-25T00:21:56;100848.03;;;22.52
67515;BMP280;60646;55.802;37.032;2022-08-25T00:24:23;100841.91;;;22.51
67515;BMP280;60646;55.802;37.032;2022-08-25T00:26:52;100849.00;;;22.54
67515;BMP280;60646;55.802;37.032;2022-08-25T00:29:20;100860.63;;;22.55
67515;BMP280;60646;55.802;37.032;2022-08-25T00:31:47;100842.41;;;22.42
67515;BMP280;60646;55.802;37.032;2022-08-25T00:34:17;100850.09;;;22.51
67515;BMP280;60646;55.802;37.032;2022-08-25T00:36:44;100839.84;;;22.37
67515;BMP280;60646;55.802;37.032;2022-08-25T00:39:11;100848.00;;;22.37
67515;BMP280;60646;55.802;37.032;2022-08-25T00:41:39;100864.91;;;22.43
67515;BMP280;60646;55.802;37.032;2022-08-25T00:44:08;100843.81;;;22.28
67515;BMP280;60646;55.802;37.032;2022-08-25T00:46:38;100861.63;;;22.37
67515;BMP280;60646;55.802;37.032;2022-08-25T00:52:12;100860.53;;;22.32
67515;BMP280;60646;55.802;37.032;2022-08-25T00:54:42;100857.22;;;22.26
67515;BMP280;60646;55.802;37.032;2022-08-25T00:57:11;100852.09;;;22.15
67515;BMP280;60646;55.802;37.032;2022-08-25T00:59:39;100853.56;;;22.16
67515;BMP280;60646;55.802;37.032;2022-08-25T01:02:07;100845.53;;;22.11
67515;BMP280;60646;55.802;37.032;2022-08-25T01:04:33;100851.91;;;22.13
67515;BMP280;60646;55.802;37.032;2022-08-25T01:06:59;100850.25;;;22.10
67515;BMP280;60646;55.802;37.032;2022-08-25T01:09:27;100832.44;;;22.02
67515;BMP280;60646;55.802;37.032;2022-08-25T01:11:53;100853.16;;;22.12
67515;BMP280;60646;55.802;37.032;2022-08-25T01:14:20;100861.53;;;22.14
67515;BMP280;60646;55.802;37.032;2022-08-25T01:16:47;100841.72;;;22.06
67515;BMP280;60646;55.802;37.032;2022-08-25T01:19:14;100840.25;;;22.05
67515;BMP280;60646;55.802;37.032;2022-08-25T01:21:44;100841.38;;;22.10
67515;BMP280;60646;55.802;37.032;2022-08-25T01:24:23;100843.16;;;22.07
67515;BMP280;60646;55.802;37.032;2022-08-25T01:26:50;100843.84;;;22.00
67515;BMP280;60646;55.802;37.032;2022-08-25T01:29:16;100835.31;;;21.96
67515;BMP280;60646;55.802;37.032;2022-08-25T01:31:51;100845.50;;;22.03
67515;BMP280;60646;55.802;37.032;2022-08-25T01:34:19;100834.19;;;21.91
67515;BMP280;60646;55.802;37.032;2022-08-25T01:36:46;100829.09;;;21.88
67515;BMP280;60646;55.802;37.032;2022-08-25T01:39:13;100831.63;;;21.86
67515;BMP280;60646;55.802;37.032;2022-08-25T01:41:44;100846.53;;;21.92
67515;BMP280;60646;55.802;37.032;2022-08-25T01:44:10;100845.88;;;22.07
67515;BMP280;60646;55.802;37.032;2022-08-25T01:46:36;100852.31;;;21.89
67515;BMP280;60646;55.802;37.032;2022-08-25T01:49:03;100853.41;;;21.86
67515;BMP280;60646;55.802;37.032;2022-08-25T01:51:34;100849.41;;;21.87
67515;BMP280;60646;55.802;37.032;2022-08-25T01:54:03;100839.88;;;21.73
67515;BMP280;60646;55.802;37.032;2022-08-25T01:56:28;100839.50;;;21.69
67515;BMP280;60646;55.802;37.032;2022-08-25T01:58:54;100846.19;;;21.68
67515;BMP280;60646;55.802;37.032;2022-08-25T02:01:22;100850.75;;;21.73
67515;BMP280;60646;55.802;37.032;2022-08-25T02:03:50;100850.72;;;21.65
67515;BMP280;60646;55.802;37.032;2022-08-25T02:06:22;100844.88;;;21.61
67515;BMP280;60646;55.802;37.032;2022-08-25T02:08:50;100847.78;;;21.63
67515;BMP280;60646;55.802;37.032;2022-08-25T02:11:17;100846.28;;;21.55
67515;BMP280;60646;55.802;37.032;2022-08-25T02:13:42;100838.31;;;21.57
67515;BMP280;60646;55.802;37.032;2022-08-25T02:16:09;100857.97;;;21.63
67515;BMP280;60646;55.802;37.032;2022-08-25T02:18:59;100839.19;;;21.52
67515;BMP280;60646;55.802;37.032;2022-08-25T02:21:25;100840.97;;;21.49
67515;BMP280;60646;55.802;37.032;2022-08-25T02:23:51;100848.63;;;21.51
67515;BMP280;60646;55.802;37.032;2022-08-25T02:26:17;100848.63;;;21.51
67515;BMP280;60646;55.802;37.032;2022-08-25T02:28:45;100849.13;;;21.49
67515;BMP280;60646;55.802;37.032;2022-08-25T02:31:12;100851.34;;;21.51
67515;BMP280;60646;55.802;37.032;2022-08-25T02:33:38;100858.44;;;21.54
67515;BMP280;60646;55.802;37.032;2022-08-25T02:36:04;100854.91;;;21.46
67515;BMP280;60646;55.802;37.032;2022-08-25T02:38:30;100851.50;;;21.53
67515;BMP280;60646;55.802;37.032;2022-08-25T02:40:58;100836.97;;;21.43
67515;BMP280;60646;55.802;37.032;2022-08-25T02:43:25;100851.34;;;21.51
67515;BMP280;60646;55.802;37.032;2022-08-25T02:45:52;100844.03;;;21.46
67515;BMP280;60646;55.802;37.032;2022-08-25T02:48:19;100846.94;;;21.48
67515;BMP280;60646;55.802;37.032;2022-08-25T02:50:48;100842.78;;;21.47
67515;BMP280;60646;55.802;37.032;2022-08-25T02:53:20;100852.06;;;21.51
67515;BMP280;60646;55.802;37.032;2022-08-25T02:55:46;100838.22;;;21.42
67515;BMP280;60646;55.802;37.032;2022-08-25T02:58:13;100846.53;;;21.44
67515;BMP280;60646;55.802;37.032;2022-08-25T03:00:39;100836.75;;;21.41
67515;BMP280;60646;55.802;37.032;2022-08-25T03:03:05;100846.16;;;21.40
67515;BMP280;60646;55.802;37.032;2022-08-25T03:05:32;100835.84;;;21.38
67515;BMP280;60646;55.802;37.032;2022-08-25T03:08:16;100846.53;;;21.44
67515;BMP280;60646;55.802;37.032;2022-08-25T03:10:42;100840.72;;;21.40
67515;BMP280;60646;55.802;37.032;2022-08-25T03:13:08;100848.41;;;21.49
67515;BMP280;60646;55.802;37.032;2022-08-25T03:15:34;100845.28;;;21.45
67515;BMP280;60646;55.802;37.032;2022-08-25T03:18:03;100850.25;;;21.54
67515;BMP280;60646;55.802;37.032;2022-08-25T03:20:30;100846.63;;;21.51
67515;BMP280;60646;55.802;37.032;2022-08-25T03:22:56;100840.84;;;21.55
67515;BMP280;60646;55.802;37.032;2022-08-25T03:25:22;100841.03;;;21.57
67515;BMP280;60646;55.802;37.032;2022-08-25T03:28:25;100838.72;;;21.61
67515;BMP280;60646;55.802;37.032;2022-08-25T03:30:51;100854.72;;;21.72
67515;BMP280;60646;55.802;37.032;2022-08-25T03:33:18;100834.91;;;21.64
67515;BMP280;60646;55.802;37.032;2022-08-25T03:35:45;100848.63;;;21.79
67515;BMP280;60646;55.802;37.032;2022-08-25T03:38:10;100835.91;;;21.74
67515;BMP280;60646;55.802;37.032;2022-08-25T03:40:37;100851.19;;;21.84
67515;BMP280;60646;55.802;37.032;2022-08-25T03:43:03;100837.75;;;21.79
67515;BMP280;60646;55.802;37.032;2022-08-25T03:45:29;100833.41;;;21.83
67515;BMP280;60646;55.802;37.032;2022-08-25T03:47:55;100842.72;;;21.88
67515;BMP280;60646;55.802;37.032;2022-08-25T03:50:22;100838.16;;;21.90
67515;BMP280;60646;55.802;37.032;2022-08-25T03:52:55;100847.34;;;22.08
67515;BMP280;60646;55.802;37.032;2022-08-25T03:55:23;100851.31;;;22.07
67515;BMP280;60646;55.802;37.032;2022-08-25T03:57:50;100829.91;;;22.04
67515;BMP280;60646;55.802;37.032;2022-08-25T04:00:16;100833.53;;;22.06
67515;BMP280;60646;55.802;37.032;2022-08-25T04:02:42;100831.00;;;22.08
67515;BMP280;60646;55.802;37.032;2022-08-25T04:05:08;100833.91;;;22.10
67515;BMP280;60646;55.802;37.032;2022-08-25T04:07:34;100824.47;;;22.11
67515;BMP280;60646;55.802;37.032;2022-08-25T04:10:00;100828.16;;;22.21
67515;BMP280;60646;55.802;37.032;2022-08-25T04:12:26;100810.00;;;22.16
67515;BMP280;60646;55.802;37.032;2022-08-25T04:14:52;100825.66;;;22.31
67515;BMP280;60646;55.802;37.032;2022-08-25T04:17:18;100830.00;;;22.34
67515;BMP280;60646;55.802;37.032;2022-08-25T04:19:44;100828.41;;;22.38
67515;BMP280;60646;55.802;37.032;2022-08-25T04:22:10;100826.09;;;22.42
67515;BMP280;60646;55.802;37.032;2022-08-25T04:24:35;100811.91;;;22.44
67515;BMP280;60646;55.802;37.032;2022-08-25T04:27:01;100817.00;;;22.47
67515;BMP280;60646;55.802;37.032;2022-08-25T04:33:09;100806.50;;;22.51
67515;BMP280;60646;55.802;37.032;2022-08-25T04:35:35;100810.13;;;22.61
67515;BMP280;60646;55.802;37.032;2022-08-25T04:38:01;100807.59;;;22.63
67515;BMP280;60646;55.802;37.032;2022-08-25T04:40:27;100813.78;;;22.71
67515;BMP280;60646;55.802;37.032;2022-08-25T04:43:11;100811.63;;;22.78
67515;BMP280;60646;55.802;37.032;2022-08-25T04:45:38;100795.28;;;22.78
67515;BMP280;60646;55.802;37.032;2022-08-25T04:48:23;100799.06;;;22.90
67515;BMP280;60646;55.802;37.032;2022-08-25T04:50:50;100796.72;;;22.94
67515;BMP280;60646;55.802;37.032;2022-08-25T04:53:16;100811.63;;;23.08
67515;BMP280;60646;55.802;37.032;2022-08-25T04:55:43;100797.09;;;23.05
67515;BMP280;60646;55.802;37.032;2022-08-25T04:58:11;100804.75;;;23.22
67515;BMP280;60646;55.802;37.032;2022-08-25T05:00:38;100813.63;;;23.30
67515;BMP280;60646;55.802;37.032;2022-08-25T05:03:04;100791.63;;;23.28
67515;BMP280;60646;55.802;37.032;2022-08-25T05:05:30;100793.81;;;23.37
67515;BMP280;60646;55.802;37.032;2022-08-25T05:07:57;100811.97;;;23.49
67515;BMP280;60646;55.802;37.032;2022-08-25T05:10:23;100802.50;;;23.58
67515;BMP280;60646;55.802;37.032;2022-08-25T05:12:51;100800.31;;;23.64
67515;BMP280;60646;55.802;37.032;2022-08-25T05:15:18;100799.53;;;23.71
67515;BMP280;60646;55.802;37.032;2022-08-25T05:18:02;100786.41;;;23.77
67515;BMP280;60646;55.802;37.032;2022-08-25T05:21:04;100803.94;;;24.06
67515;BMP280;60646;55.802;37.032;2022-08-25T05:23:49;100785.59;;;23.99
67515;BMP280;60646;55.802;37.032;2022-08-25T05:26:20;100786.47;;;24.09
67515;BMP280;60646;55.802;37.032;2022-08-25T05:28:50;100794.44;;;24.22
67515;BMP280;60646;55.802;37.032;2022-08-25T05:31:17;100794.19;;;24.28
67515;BMP280;60646;55.802;37.032;2022-08-25T05:33:43;100799.03;;;24.37
67515;BMP280;60646;55.802;37.032;2022-08-25T05:36:10;100796.97;;;24.53
67515;BMP280;60646;55.802;37.032;2022-08-25T05:38:38;100797.81;;;24.63
67515;BMP280;60646;55.802;37.032;2022-08-25T05:41:14;100784.63;;;24.69
67515;BMP280;60646;55.802;37.032;2022-08-25T05:43:41;100795.13;;;24.80
67515;BMP280;60646;55.802;37.032;2022-08-25T05:46:08;100794.50;;;24.89
67515;BMP280;60646;55.802;37.032;2022-08-25T05:48:35;100790.97;;;24.96
67515;BMP280;60646;55.802;37.032;2022-08-25T05:51:03;100788.75;;;25.02
67515;BMP280;60646;55.802;37.032;2022-08-25T05:53:30;100765.56;;;25.03
67515;BMP280;60646;55.802;37.032;2022-08-25T05:55:57;100771.69;;;25.11
67515;BMP280;60646;55.802;37.032;2022-08-25T05:58:25;100776.84;;;25.24
67515;BMP280;60646;55.802;37.032;2022-08-25T06:00:56;100777.13;;;25.35
67515;BMP280;60646;55.802;37.032;2022-08-25T06:03:22;100772.50;;;25.38
67515;BMP280;60646;55.802;37.032;2022-08-25T06:05:48;100777.31;;;25.47
67515;BMP280;60646;55.802;37.032;2022-08-25T06:08:14;100783.59;;;25.57
67515;BMP280;60646;55.802;37.032;2022-08-25T06:10:41;100771.94;;;25.57
67515;BMP280;60646;55.802;37.032;2022-08-25T06:13:06;100784.56;;;25.69
67515;BMP280;60646;55.802;37.032;2022-08-25T06:15:32;100789.84;;;25.84
67515;BMP280;60646;55.802;37.032;2022-08-25T06:17:58;100776.28;;;25.86
67515;BMP280;60646;55.802;37.032;2022-08-25T06:20:27;100787.06;;;26.01
67515;BMP280;60646;55.802;37.032;2022-08-25T06:23:15;100788.88;;;26.16
67515;BMP280;60646;55.802;37.032;2022-08-25T06:25:51;100766.78;;;26.14
67515;BMP280;60646;55.802;37.032;2022-08-25T06:28:17;100792.09;;;26.31
67515;BMP280;60646;55.802;37.032;2022-08-25T06:30:44;100782.59;;;26.32
67515;BMP280;60646;55.802;37.032;2022-08-25T06:33:10;100788.72;;;26.50
67515;BMP280;60646;55.802;37.032;2022-08-25T06:35:36;100771.69;;;26.52
67515;BMP280;60646;55.802;37.032;2022-08-25T06:38:02;100774.47;;;26.61
67515;BMP280;60646;55.802;37.032;2022-08-25T06:40:28;100775.53;;;26.75
67515;BMP280;60646;55.802;37.032;2022-08-25T06:42:54;100766.69;;;26.77
67515;BMP280;60646;55.802;37.032;2022-08-25T06:45:20;100777.25;;;26.90
67515;BMP280;60646;55.802;37.032;2022-08-25T06:47:47;100765.28;;;26.95
67515;BMP280;60646;55.802;37.032;2022-08-25T06:50:12;100767.59;;;27.08
67515;BMP280;60646;55.802;37.032;2022-08-25T06:52:39;100762.84;;;27.18
67515;BMP280;60646;55.802;37.032;2022-08-25T06:55:05;100761.97;;;27.25
67515;BMP280;60646;55.802;37.032;2022-08-25T06:57:31;100758.50;;;27.34
67515;BMP280;60646;55.802;37.032;2022-08-25T07:00:03;100772.09;;;27.51
67515;BMP280;60646;55.802;37.032;2022-08-25T07:02:29;100754.44;;;27.54
67515;BMP280;60646;55.802;37.032;2022-08-25T07:04:55;100763.66;;;27.68
67515;BMP280;60646;55.802;37.032;2022-08-25T07:07:21;100761.91;;;27.73
67515;BMP280;60646;55.802;37.032;2022-08-25T07:09:47;100759.56;;;27.88
67515;BMP280;60646;55.802;37.032;2022-08-25T07:12:13;100747.84;;;27.88
67515;BMP280;60646;55.802;37.032;2022-08-25T07:14:39;100762.19;;;28.07
67515;BMP280;60646;55.802;37.032;2022-08-25T07:17:05;100762.91;;;28.17
67515;BMP280;60646;55.802;37.032;2022-08-25T07:19:49;100759.84;;;28.23
67515;BMP280;60646;55.802;37.032;2022-08-25T07:22:15;100746.22;;;28.25
67515;BMP280;60646;55.802;37.032;2022-08-25T07:24:41;100749.63;;;28.35
67515;BMP280;60646;55.802;37.032;2022-08-25T07:27:07;100744.81;;;28.45
67515;BMP280;60646;55.802;37.032;2022-08-25T07:29:33;100734.66;;;28.48
67515;BMP280;60646;55.802;37.032;2022-08-25T07:32:03;100728.97;;;28.55
67515;BMP280;60646;55.802;37.032;2022-08-25T07:34:30;100750.38;;;28.78
67515;BMP280;60646;55.802;37.032;2022-08-25T07:37:15;100747.41;;;28.85
67515;BMP280;60646;55.802;37.032;2022-08-25T07:39:41;100752.84;;;28.95
67515;BMP280;60646;55.802;37.032;2022-08-25T07:42:07;100742.56;;;28.95
67515;BMP280;60646;55.802;37.032;2022-08-25T07:44:33;100739.00;;;29.04
67515;BMP280;60646;55.802;37.032;2022-08-25T07:46:59;100742.81;;;29.11
67515;BMP280;60646;55.802;37.032;2022-08-25T07:49:26;100734.38;;;29.18
67515;BMP280;60646;55.802;37.032;2022-08-25T07:51:53;100722.91;;;29.22
67515;BMP280;60646;55.802;37.032;2022-08-25T07:54:19;100723.50;;;29.32
67515;BMP280;60646;55.802;37.032;2022-08-25T07:56:45;100719.94;;;29.41
67515;BMP280;60646;55.802;37.032;2022-08-25T07:59:11;100727.38;;;29.50
67515;BMP280;60646;55.802;37.032;2022-08-25T08:01:38;100732.16;;;29.61
67515;BMP280;60646;55.802;37.032;2022-08-25T08:04:04;100715.63;;;29.61
67515;BMP280;60646;55.802;37.032;2022-08-25T08:06:30;100709.19;;;29.68
67515;BMP280;60646;55.802;37.032;2022-08-25T08:08:56;100716.94;;;29.83
67515;BMP280;60646;55.802;37.032;2022-08-25T08:13:54;100715.19;;;29.99
67515;BMP280;60646;55.802;37.032;2022-08-25T08:16:23;100699.94;;;29.98
67515;BMP280;60646;55.802;37.032;2022-08-25T08:18:49;100699.09;;;30.07
67515;BMP280;60646;55.802;37.032;2022-08-25T08:21:26;100706.25;;;30.24
67515;BMP280;60646;55.802;37.032;2022-08-25T08:23:53;100696.16;;;30.28
67515;BMP280;60646;55.802;37.032;2022-08-25T08:26:19;100691.72;;;30.35
67515;BMP280;60646;55.802;37.032;2022-08-25T08:28:46;100688.91;;;30.46
67515;BMP280;60646;55.802;37.032;2022-08-25T08:31:12;100685.16;;;30.53
67515;BMP280;60646;55.802;37.032;2022-08-25T08:33:38;100689.91;;;30.64
67515;BMP280;60646;55.802;37.032;2022-08-25T08:36:08;100698.94;;;30.79
67515;BMP280;60646;55.802;37.032;2022-08-25T08:38:35;100676.28;;;30.80
67515;BMP280;60646;55.802;37.032;2022-08-25T08:41:40;100691.97;;;31.03
67515;BMP280;60646;55.802;37.032;2022-08-25T08:44:58;100692.63;;;31.15
67515;BMP280;60646;55.802;37.032;2022-08-25T08:50:20;100682.91;;;31.27
67515;BMP280;60646;55.802;37.032;2022-08-25T08:53:01;100688.38;;;31.39
67515;BMP280;60646;55.802;37.032;2022-08-25T08:58:01;100687.56;;;31.50
67515;BMP280;60646;55.802;37.032;2022-08-25T09:00:29;100677.94;;;31.51
67515;BMP280;60646;55.802;37.032;2022-08-25T09:03:03;100664.75;;;31.63
67515;BMP280;60646;55.802;37.032;2022-08-25T09:05:36;100669.84;;;31.68
67515;BMP280;60646;55.802;37.032;2022-08-25T09:08:06;100673.84;;;31.79
67515;BMP280;60646;55.802;37.032;2022-08-25T09:10:44;100670.56;;;31.82
67515;BMP280;60646;55.802;37.032;2022-08-25T09:13:23;100673.81;;;31.93
67515;BMP280;60646;55.802;37.032;2022-08-25T09:16:04;100661.69;;;32.00
67515;BMP280;60646;55.802;37.032;2022-08-25T09:18:59;100664.25;;;32.09
67515;BMP280;60646;55.802;37.032;2022-08-25T09:21:34;100661.34;;;32.21
67515;BMP280;60646;55.802;37.032;2022-08-25T09:31:03;100653.84;;;32.52
67515;BMP280;60646;55.802;37.032;2022-08-25T09:33:32;100641.88;;;32.48
67515;BMP280;60646;55.802;37.032;2022-08-25T09:35:58;100645.00;;;32.56
67515;BMP280;60646;55.802;37.032;2022-08-25T09:38:26;100640.56;;;32.64
67515;BMP280;60646;55.802;37.032;2022-08-25T09:40:56;100643.78;;;32.74
67515;BMP280;60646;55.802;37.032;2022-08-25T09:43:32;100642.78;;;32.83
67515;BMP280;60646;55.802;37.032;2022-08-25T09:48:43;100633.22;;;32.86
67515;BMP280;60646;55.802;37.032;2022-08-25T09:51:26;100627.97;;;32.92
67515;BMP280;60646;55.802;37.032;2022-08-25T09:56:57;100626.00;;;33.10
67515;BMP280;60646;55.802;37.032;2022-08-25T09:59:30;100621.19;;;33.11
67515;BMP280;60646;55.802;37.032;2022-08-25T10:02:04;100620.75;;;33.17
67515;BMP280;60646;55.802;37.032;2022-08-25T10:04:46;100615.06;;;33.14
67515;BMP280;60646;55.802;37.032;2022-08-25T10:07:26;100626.78;;;33.29
67515;BMP280;60646;55.802;37.032;2022-08-25T10:09:58;100625.34;;;33.28
67515;BMP280;60646;55.802;37.032;2022-08-25T10:12:40;100624.06;;;33.31
67515;BMP280;60646;55.802;37.032;2022-08-25T10:17:48;100605.72;;;33.06
67515;BMP280;60646;55.802;37.032;2022-08-25T10:20:19;100626.28;;;33.17
67515;BMP280;60646;55.802;37.032;2022-08-25T10:22:48;100623.50;;;33.17
67515;BMP280;60646;55.802;37.032;2022-08-25T10:25:54;100606.94;;;33.18
67515;BMP280;60646;55.802;37.032;2022-08-25T10:28:27;100614.81;;;33.24
67515;BMP280;60646;55.802;37.032;2022-08-25T10:37:04;100610.22;;;33.31
67515;BMP280;60646;55.802;37.032;2022-08-25T10:45:22;100604.59;;;33.29
67515;BMP280;60646;55.802;37.032;2022-08-25T11:05:51;100577.25;;;33.72
67515;BMP280;60646;55.802;37.032;2022-08-25T11:08:33;100581.94;;;33.67
67515;BMP280;60646;55.802;37.032;2022-08-25T11:11:09;100563.00;;;33.62
67515;BMP280;60646;55.802;37.032;2022-08-25T11:13:58;100571.84;;;33.76
67515;BMP280;60646;55.802;37.032;2022-08-25T11:16:54;100574.72;;;33.78
67515;BMP280;60646;55.802;37.032;2022-08-25T11:19:32;100549.34;;;33.68
67515;BMP280;60646;55.802;37.032;2022-08-25T11:22:14;100553.16;;;33.76
67515;BMP280;60646;55.802;37.032;2022-08-25T11:24:44;100559.53;;;33.79
67515;BMP280;60646;55.802;37.032;2022-08-25T11:27:26;100558.47;;;33.88
67515;BMP280;60646;55.802;37.032;2022-08-25T11:29:59;100534.56;;;33.79
67515;BMP280;60646;55.802;37.032;2022-08-25T11:32:26;100540.16;;;33.81
67515;BMP280;60646;55.802;37.032;2022-08-25T11:35:07;100551.56;;;33.89
67515;BMP280;60646;55.802;37.032;2022-08-25T11:38:03;100549.84;;;33.97
67515;BMP280;60646;55.802;37.032;2022-08-25T11:43:13;100548.06;;;34.06
67515;BMP280;60646;55.802;37.032;2022-08-25T11:49:13;100539.63;;;34.21
67515;BMP280;60646;55.802;37.032;2022-08-25T11:51:47;100525.47;;;34.13
67515;BMP280;60646;55.802;37.032;2022-08-25T11:54:33;100536.22;;;34.23
67515;BMP280;60646;55.802;37.032;2022-08-25T11:57:03;100535.00;;;34.28
67515;BMP280;60646;55.802;37.032;2022-08-25T12:00:07;100528.47;;;34.39
67515;BMP280;60646;55.802;37.032;2022-08-25T12:02:49;100542.13;;;34.33
67515;BMP280;60646;55.802;37.032;2022-08-25T12:13:36;100531.31;;;34.41
67515;BMP280;60646;55.802;37.032;2022-08-25T12:16:02;100521.44;;;34.36
67515;BMP280;60646;55.802;37.032;2022-08-25T12:23:40;100521.66;;;34.61
67515;BMP280;60646;55.802;37.032;2022-08-25T12:26:34;100519.56;;;34.62
67515;BMP280;60646;55.802;37.032;2022-08-25T12:29:19;100501.56;;;34.63
67515;BMP280;60646;55.802;37.032;2022-08-25T12:32:32;100514.34;;;34.72
67515;BMP280;60646;55.802;37.032;2022-08-25T12:37:28;100506.84;;;34.96
67515;BMP280;60646;55.802;37.032;2022-08-25T12:44:46;100500.34;;;35.09
67515;BMP280;60646;55.802;37.032;2022-08-25T12:49:38;100490.78;;;35.14
67515;BMP280;60646;55.802;37.032;2022-08-25T12:52:05;100488.75;;;35.17
67515;BMP280;60646;55.802;37.032;2022-08-25T12:57:50;100492.19;;;35.15
67515;BMP280;60646;55.802;37.032;2022-08-25T13:02:53;100488.63;;;35.13
67515;BMP280;60646;55.802;37.032;2022-08-25T13:13:43;100476.81;;;35.12
67515;BMP280;60646;55.802;37.032;2022-08-25T13:16:19;100478.94;;;35.14
67515;BMP280;60646;55.802;37.032;2022-08-25T13:18:52;100469.94;;;35.15
67515;BMP280;60646;55.802;37.032;2022-08-25T13:23:58;100468.66;;;35.18
67515;BMP280;60646;55.802;37.032;2022-08-25T13:26:25;100467.34;;;35.21
67515;BMP280;60646;55.802;37.032;2022-08-25T13:29:34;100466.00;;;35.22
67515;BMP280;60646;55.802;37.032;2022-08-25T13:34:28;100453.56;;;35.25
67515;BMP280;60646;55.802;37.032;2022-08-25T13:36:55;100457.78;;;35.26
67515;BMP280;60646;55.802;37.032;2022-08-25T13:39:40;100453.66;;;35.27
67515;BMP280;60646;55.802;37.032;2022-08-25T13:42:13;100460.63;;;35.28
67515;BMP280;60646;55.802;37.032;2022-08-25T13:44:40;100455.06;;;35.28
67515;BMP280;60646;55.802;37.032;2022-08-25T13:47:07;100449.56;;;35.30
67515;BMP280;60646;55.802;37.032;2022-08-25T13:49:33;100452.34;;;35.30
67515;BMP280;60646;55.802;37.032;2022-08-25T13:51:59;100445.44;;;35.31
67515;BMP280;60646;55.802;37.032;2022-08-25T13:54:43;100447.50;;;35.31
67515;BMP280;60646;55.802;37.032;2022-08-25T13:59:37;100446.19;;;35.34
67515;BMP280;60646;55.802;37.032;2022-08-25T14:02:09;100440.69;;;35.36
67515;BMP280;60646;55.802;37.032;2022-08-25T14:07:15;100437.19;;;35.35
67515;BMP280;60646;55.802;37.032;2022-08-25T14:09:56;100427.53;;;35.36
67515;BMP280;60646;55.802;37.032;2022-08-25T14:12:32;100433.81;;;35.37
67515;BMP280;60646;55.802;37.032;2022-08-25T14:17:46;100420.53;;;35.35
67515;BMP280;60646;55.802;37.032;2022-08-25T14:22:41;100426.72;;;35.34
67515;BMP280;60646;55.802;37.032;2022-08-25T14:25:07;100429.50;;;35.34
67515;BMP280;60646;55.802;37.032;2022-08-25T14:27:33;100420.47;;;35.33
67515;BMP280;60646;55.802;37.032;2022-08-25T14:29:59;100426.69;;;35.32
67515;BMP280;60646;55.802;37.032;2022-08-25T14:32:25;100431.53;;;35.31
67515;BMP280;60646;55.802;37.032;2022-08-25T14:34:51;100418.97;;;35.30
67515;BMP280;60646;55.802;37.032;2022-08-25T14:37:18;100427.97;;;35.29
67515;BMP280;60646;55.802;37.032;2022-08-25T14:39:43;100421.72;;;35.28
67515;BMP280;60646;55.802;37.032;2022-08-25T14:42:10;100430.00;;;35.26
67515;BMP280;60646;55.802;37.032;2022-08-25T14:44:36;100416.03;;;35.24
67515;BMP280;60646;55.802;37.032;2022-08-25T14:47:02;100410.41;;;35.22
67515;BMP280;60646;55.802;37.032;2022-08-25T14:49:28;100410.31;;;35.20
67515;BMP280;60646;55.802;37.032;2022-08-25T14:54:42;100396.28;;;35.14
67515;BMP280;60646;55.802;37.032;2022-08-25T14:57:09;100403.81;;;35.12
67515;BMP280;60646;55.802;37.032;2022-08-25T14:59:34;100407.28;;;35.10
67515;BMP280;60646;55.802;37.032;2022-08-25T15:02:00;100400.22;;;35.07
67515;BMP280;60646;55.802;37.032;2022-08-25T15:04:26;100395.97;;;35.04
67515;BMP280;60646;55.802;37.032;2022-08-25T15:06:55;100402.16;;;35.03
67515;BMP280;60646;55.802;37.032;2022-08-25T15:12:12;100405.34;;;34.93
67515;BMP280;60646;55.802;37.032;2022-08-25T15:14:38;100402.50;;;34.91
67515;BMP280;60646;55.802;37.032;2022-08-25T15:17:04;100394.75;;;34.88
67515;BMP280;60646;55.802;37.032;2022-08-25T15:19:31;100397.41;;;34.84
67515;BMP280;60646;55.802;37.032;2022-08-25T15:21:58;100398.69;;;34.81
67515;BMP280;60646;55.802;37.032;2022-08-25T15:24:24;100388.16;;;34.77
67515;BMP280;60646;55.802;37.032;2022-08-25T15:26:51;100399.16;;;34.73
67515;BMP280;60646;55.802;37.032;2022-08-25T15:29:17;100392.75;;;34.69
67515;BMP280;60646;55.802;37.032;2022-08-25T15:31:44;100391.19;;;34.63
67515;BMP280;60646;55.802;37.032;2022-08-25T15:34:10;100386.22;;;34.60
67515;BMP280;60646;55.802;37.032;2022-08-25T15:36:36;100389.53;;;34.54
67515;BMP280;60646;55.802;37.032;2022-08-25T15:39:02;100395.66;;;34.51
67515;BMP280;60646;55.802;37.032;2022-08-25T15:41:28;100392.66;;;34.45
67515;BMP280;60646;55.802;37.032;2022-08-25T15:43:57;100396.63;;;34.40
67515;BMP280;60646;55.802;37.032;2022-08-25T15:46:49;100392.25;;;34.33
67515;BMP280;60646;55.802;37.032;2022-08-25T15:49:14;100390.06;;;34.29
67515;BMP280;60646;55.802;37.032;2022-08-25T15:51:40;100386.41;;;34.25
67515;BMP280;60646;55.802;37.032;2022-08-25T15:54:06;100386.28;;;34.21
67515;BMP280;60646;55.802;37.032;2022-08-25T15:56:32;100391.69;;;34.17
67515;BMP280;60646;55.802;37.032;2022-08-25T15:58:57;100391.50;;;34.11
67515;BMP280;60646;55.802;37.032;2022-08-25T16:01:24;100390.66;;;34.06
67515;BMP280;60646;55.802;37.032;2022-08-25T16:03:50;100393.91;;;34.01
67515;BMP280;60646;55.802;37.032;2022-08-25T16:06:17;100395.13;;;33.96